Температура Усеща се
като
Влажност Налягане на
въздуха
Барометър Точка на
оросяване
-7.21 °C -7.2 °C 85.7 % 915.43 hPa 964.24 hPa -8.97 °C
Скорост на
вятъра
Пик на
вятъра
Средна
скорост
Посока на
вятъра
Главна посока на
вятъра
0 km/h 0 km/h 0 km/h 37.97 ° -1 °
Температура Скорост на
вятъра
Посока на
вятъра
Влажност Дата
-7.21 0 37.97 85.7 02-12-20 08:34:12
-7.39 0 37.95 85.55 02-12-20 08:32:12
-7.56 0 37.99 85.45 02-12-20 08:30:12
-7.66 0 37.92 85.55 02-12-20 08:28:12
-7.78 0 37.9 85.5 02-12-20 08:26:12
-7.87 0 38.01 85.51 02-12-20 08:24:12
-7.99 2.47 37.95 85.33 02-12-20 08:22:12
-8 3.44 37.86 85.32 02-12-20 08:20:12
-7.96 3.55 37.44 85.05 02-12-20 08:18:12
-7.92 2.88 33.4 84.92 02-12-20 08:16:12
-7.88 2.18 17.71 85.3 02-12-20 08:14:12
-7.88 0 16.17 85.37 02-12-20 08:12:12
-7.85 0 12.74 85.78 02-12-20 08:10:12
-7.94 0 12.72 84.99 02-12-20 08:08:12
-7.73 3.21 11.95 85.65 02-12-20 08:06:12
-7.63 3.85 10.96 86.04 02-12-20 08:04:12
-7.66 3.17 9.73 85.77 02-12-20 08:02:12
-7.59 2.24 7.78 86.2 02-12-20 08:00:12
-7.59 1.91 6.92 86.45 02-12-20 07:58:12
-7.69 2.71 6.86 86.11 02-12-20 07:56:12
-7.72 2.75 6.83 86.18 02-12-20 07:54:12
-7.76 1.87 6.81 86.2 02-12-20 07:52:12
-7.8 1.97 6.75 86.06 02-12-20 07:50:12
-7.89 2.68 6.68 85.71 02-12-20 07:48:12
-7.87 2.39 6.11 85.78 02-12-20 07:46:12
-7.8 2.02 5.87 85.93 02-12-20 07:44:12
-7.75 2.77 5.16 86.12 02-12-20 07:42:12
-7.7 4.34 7.08 86.17 02-12-20 07:40:12
-7.68 4.4 7.27 86.04 02-12-20 07:38:12
-7.59 5.18 5.93 86.32 02-12-20 07:36:12
-7.55 4.24 13.91 86.64 02-12-20 07:34:12
-7.59 4.28 21.29 86.84 02-12-20 07:32:12
-7.73 2.73 32.59 86.73 02-12-20 07:30:12
-7.84 1.25 32.54 86.81 02-12-20 07:28:12
-7.97 0 36.89 87.07 02-12-20 07:26:12
-8.14 0 48.36 86.7 02-12-20 07:24:12
-8.37 0 48.32 85.76 02-12-20 07:22:12
-8.48 0 48.34 85.39 02-12-20 07:20:12
-8.49 0 48.38 85.25 02-12-20 07:18:12
-8.44 0 48.36 85.45 02-12-20 07:16:12
-8.48 1.4 48.38 85 02-12-20 07:14:12
-8.43 3 48.45 84.93 02-12-20 07:12:12
-8.26 3.91 48.45 84.43 02-12-20 07:10:12
-7.96 5.5 49.17 84.58 02-12-20 07:08:12
-7.55 1.24 4.46 86.14 02-12-20 07:06:12
-7.47 3.99 336.93 86.55 02-12-20 07:04:12
-7.55 4.37 338.69 86.31 02-12-20 07:02:12
-7.58 3.61 337.54 86.07 02-12-20 07:00:12
-7.57 3.68 346.6 86.19 02-12-20 06:58:12
-7.62 3.21 350.62 85.98 02-12-20 06:56:12
-7.69 3.02 350.53 85.68 02-12-20 06:54:12
-7.72 2.65 2.29 85.85 02-12-20 06:52:12
-7.85 2.38 14.68 85.39 02-12-20 06:50:12
-7.97 0 14.68 84.55 02-12-20 06:48:12
-7.91 1.92 14.66 84.34 02-12-20 06:46:12
-7.78 1.91 14.11 84.89 02-12-20 06:44:12
-7.79 0 11.93 84.7 02-12-20 06:42:12
-7.69 0 3.96 84.97 02-12-20 06:40:12
-7.57 1.65 359.47 85.27 02-12-20 06:38:12
-7.5 2.87 359.23 85.75 02-12-20 06:36:12
-7.53 3.13 359.21 85.78 02-12-20 06:34:12
-7.6 0 359.01 85.58 02-12-20 06:32:12
-7.62 2.28 357.87 85.62 02-12-20 06:30:12
-7.65 2.59 357.1 85.45 02-12-20 06:28:12
-7.62 2.96 356.84 85.62 02-12-20 06:26:12
-7.62 2.5 356.68 85.76 02-12-20 06:24:12
-7.63 2.86 356.62 85.79 02-12-20 06:22:12
-7.6 2.22 355.19 86.06 02-12-20 06:20:12
-7.58 3.3 349.45 86.53 02-12-20 06:18:12
-7.6 2.72 349.3 86.74 02-12-20 06:16:12
-7.66 3.33 348.51 86.9 02-12-20 06:14:12
-7.74 3.97 348.55 86.94 02-12-20 06:12:12
-7.77 3.73 342.8 87.38 02-12-20 06:10:12
-7.86 4.73 342.97 87.44 02-12-20 06:08:12
-8.02 3.75 358.33 87.13 02-12-20 06:06:12
-8.14 3.35 358.37 86.96 02-12-20 06:04:12
-8.14 3.89 358.35 87 02-12-20 06:02:12
-8.14 4.35 358.35 86.7 02-12-20 06:00:12
-8.14 3.17 4.02 86.79 02-12-20 05:58:12
-8.14 2.56 7.16 86.75 02-12-20 05:56:12
-8.14 2.78 7.27 86.71 02-12-20 05:54:12
-8.14 2.88 7.14 86.78 02-12-20 05:52:12
-8.14 3.81 6.7 86.75 02-12-20 05:50:12
-8.14 4.33 4.33 86.56 02-12-20 05:48:12
-8.14 3.95 2.9 86.42 02-12-20 05:46:12
-8.14 3.28 23.47 86.1 02-12-20 05:44:12
-8.05 2.51 23.44 85.88 02-12-20 05:42:12
-7.85 3.04 23.47 86.06 02-12-20 05:40:12
-7.75 3.71 23.49 86.03 02-12-20 05:38:12
-7.64 4.71 24.08 86.04 02-12-20 05:36:12
-7.59 4.08 25.88 85.86 02-12-20 05:34:12
-7.55 2.23 25.84 85.76 02-12-20 05:32:12
-7.48 0 25.84 85.88 02-12-20 05:30:12
-7.42 0 25.8 86.13 02-12-20 05:28:12
-7.36 0 25.84 86.4 02-12-20 05:26:12
-7.31 0 25.86 86.64 02-12-20 05:24:12
-7.4 0 25.84 86.42 02-12-20 05:22:12
-7.38 0 25.82 86.67 02-12-20 05:20:12
-7.39 0 25.88 86.51 02-12-20 05:18:12
-7.4 0 25.84 86.4 02-12-20 05:16:12
-7.33 0 25.86 86.45 02-12-20 05:14:12
-7.25 0 25.86 86.63 02-12-20 05:12:12
-7.19 1.36 25.86 87 02-12-20 05:10:12
-7.15 3.4 25.86 87.06 02-12-20 05:08:12
-7.13 2.72 25.91 87.1 02-12-20 05:06:12
-7.11 1.77 25.93 87.2 02-12-20 05:04:12
-7.08 3.32 25.91 87.31 02-12-20 05:02:12
-7.07 0 27.75 87.33 02-12-20 05:00:12
-7.11 0 27.66 87.16 02-12-20 04:58:12
-7.07 0 27.73 87.29 02-12-20 04:56:12
-7.09 0 27.69 87.23 02-12-20 04:54:12
-7.15 0 27.49 87.15 02-12-20 04:52:12
-7.19 0 25.93 87.14 02-12-20 04:50:12
-7.13 0 25.91 87.35 02-12-20 04:48:12
-7.16 0 25.88 87.33 02-12-20 04:46:12
-7.19 0 25.88 87.21 02-12-20 04:44:12
-7.22 0 25.86 87.12 02-12-20 04:42:12
-7.17 0 25.91 87.28 02-12-20 04:40:12
-7.21 0 25.88 86.99 02-12-20 04:38:12
-7.24 0 25.86 86.98 02-12-20 04:36:12
-7.24 0 25.88 87.2 02-12-20 04:34:12
-7.24 0 25.86 87.07 02-12-20 04:32:12
-7.28 0 25.91 86.84 02-12-20 04:30:12
-7.24 0 25.84 86.99 02-12-20 04:28:12
-7.24 0 25.93 87.04 02-12-20 04:26:12
-7.24 0 25.88 87.11 02-12-20 04:24:12
-7.24 0 25.88 87.02 02-12-20 04:22:12
-7.27 0 25.88 86.89 02-12-20 04:20:12
-7.29 0 25.86 86.68 02-12-20 04:18:12
-7.26 0 25.88 87.03 02-12-20 04:16:12
-7.25 0 25.88 86.93 02-12-20 04:14:12
-7.31 0 25.86 86.51 02-12-20 04:12:12
-7.28 0 25.91 86.35 02-12-20 04:10:12
-7.22 0 25.93 86.34 02-12-20 04:08:12
-7.16 0 25.93 86.39 02-12-20 04:06:12
-7.05 0 25.91 86.79 02-12-20 04:04:12
-7.01 0 25.86 86.9 02-12-20 04:02:12
-7.03 0 25.91 86.77 02-12-20 04:00:12
-7.05 0 25.91 86.62 02-12-20 03:58:12
-7.04 0 25.88 86.6 02-12-20 03:56:12
-7.03 0 25.91 86.51 02-12-20 03:54:12
-6.99 2.04 25.91 86.43 02-12-20 03:52:12
-6.97 2.76 25.91 86.17 02-12-20 03:50:12
-6.95 0 25.88 86 02-12-20 03:48:12
-6.89 1.7 25.88 85.87 02-12-20 03:46:12
-6.78 2.65 25.91 86.02 02-12-20 03:44:12
-6.73 3.97 25.91 85.9 02-12-20 03:42:12
-6.66 0 25.86 86 02-12-20 03:40:12
-6.63 0 25.95 86.2 02-12-20 03:38:12
-6.62 0 25.88 86.06 02-12-20 03:36:12
-6.65 0 25.84 85.88 02-12-20 03:34:12
-6.55 0 25.86 86.35 02-12-20 03:32:12
-6.54 0 25.86 86.17 02-12-20 03:30:12
-6.59 0 25.93 85.71 02-12-20 03:28:12
-6.51 0 25.84 85.79 02-12-20 03:26:12
-6.48 0 25.86 85.91 02-12-20 03:24:12
-6.48 0 25.84 86.08 02-12-20 03:22:12
-6.49 0 25.91 86.35 02-12-20 03:20:12
-6.5 0 25.93 86.34 02-12-20 03:18:12
-6.42 0 25.91 86.71 02-12-20 03:16:12
-6.53 0 25.86 86.26 02-12-20 03:14:12
-6.54 0 25.91 86.37 02-12-20 03:12:12
-6.56 0 25.84 86.38 02-12-20 03:10:12
-6.54 0 25.91 86.51 02-12-20 03:08:12
-6.5 0 25.91 86.82 02-12-20 03:06:12
-6.49 0 25.86 86.96 02-12-20 03:04:12
-6.45 0 25.88 87.21 02-12-20 03:02:18
-6.46 0 25.86 87.19 02-12-20 03:00:12
-6.52 0 25.88 87.13 02-12-20 02:58:12
-6.47 0 25.93 87.27 02-12-20 02:56:12
-6.43 0 25.93 87.37 02-12-20 02:54:12
-6.37 0 25.84 87.74 02-12-20 02:52:12
-6.43 0 25.86 87.57 02-12-20 02:50:12
-6.49 0 25.88 87.33 02-12-20 02:48:12
-6.56 0 25.93 86.93 02-12-20 02:46:12
-6.54 0 25.86 87.17 02-12-20 02:44:12
-6.5 0 25.88 87.13 02-12-20 02:42:15
-6.49 0 25.84 87.11 02-12-20 02:40:12
-6.56 0 25.82 86.81 02-12-20 02:38:12
-6.54 0 25.91 86.9 02-12-20 02:36:12
-6.56 0 25.91 86.83 02-12-20 02:34:12
-6.54 0 25.91 86.97 02-12-20 02:32:12
-6.5 0 25.88 87.12 02-12-20 02:30:12
-6.46 0 25.91 87.27 02-12-20 02:28:12
-6.47 0 25.88 87.04 02-12-20 02:26:12
-6.48 0 25.84 86.88 02-12-20 02:24:12
-6.45 0 25.88 86.68 02-12-20 02:22:12
-6.37 0 25.93 86.64 02-12-20 02:20:12
-6.25 2.42 25.88 86.87 02-12-20 02:18:12
-6.18 3.23 25.88 86.88 02-12-20 02:16:12
-6.16 3.08 25.91 86.88 02-12-20 02:14:12
-6.1 2.37 25.91 86.94 02-12-20 02:12:12
-6.06 3 25.88 86.81 02-12-20 02:10:12
-6.04 3.21 25.91 86.53 02-12-20 02:08:12
-5.99 3.76 25.88 86.26 02-12-20 02:06:12
-5.83 3.11 25.88 87.02 02-12-20 02:04:12
-5.86 1.88 25.91 86.88 02-12-20 02:02:12
-5.86 0 25.91 86.89 02-12-20 02:00:12
-5.83 0 25.91 86.99 02-12-20 01:58:12
-5.83 0 25.91 86.81 02-12-20 01:56:12